createdAt,value
2018-02-18T10:33:27.277Z,23.68
2018-02-18T10:34:49.462Z,23.69
2018-02-18T10:35:51.770Z,23.69
2018-02-18T10:36:54.344Z,23.72
2018-02-18T10:37:56.642Z,23.72
2018-02-18T10:38:59.157Z,23.75
2018-02-18T10:40:31.734Z,23.76
2018-02-18T10:41:35.149Z,23.78
2018-02-18T10:42:38.528Z,23.79
2018-02-18T10:43:42.165Z,23.80
2018-02-18T10:44:45.593Z,23.82
2018-02-18T10:45:49.160Z,23.80
2018-02-18T10:46:52.673Z,23.85
2018-02-18T10:47:56.368Z,23.83
2018-02-18T10:48:59.983Z,23.89
2018-02-18T10:50:03.465Z,23.89
2018-02-18T10:51:06.916Z,23.90
2018-02-18T10:52:10.330Z,23.95
2018-02-18T10:53:13.768Z,23.96
2018-02-18T10:54:18.057Z,23.95
2018-02-18T10:55:21.977Z,24.00
2018-02-18T10:56:25.392Z,24.01
2018-02-18T10:57:28.783Z,24.00
2018-02-18T10:58:32.261Z,24.00
2018-02-18T11:10:27.511Z,24.08
2018-02-18T11:11:30.561Z,24.08
2018-02-18T11:12:33.882Z,24.10
2018-02-18T11:13:37.113Z,24.07
2018-02-18T11:14:40.264Z,24.10
2018-02-18T11:15:43.486Z,24.08
2018-02-18T11:16:46.723Z,24.08
2018-02-18T11:17:55.242Z,24.13
2018-02-18T11:18:58.333Z,24.10
2018-02-18T11:20:01.455Z,24.14
2018-02-18T11:21:04.799Z,24.14
2018-02-18T11:22:07.822Z,24.20
2018-02-18T11:23:10.912Z,24.20
2018-02-18T11:24:13.919Z,24.22
2018-02-18T11:25:17.595Z,24.22
2018-02-18T11:26:20.677Z,24.24
2018-02-18T11:27:23.700Z,24.24
2018-02-18T11:28:26.741Z,24.22
2018-02-18T11:29:29.829Z,24.22
2018-02-18T11:30:32.872Z,24.18
2018-02-18T11:31:35.951Z,24.20
2018-02-18T11:32:39.024Z,24.20
2018-02-18T11:33:42.033Z,24.15
2018-02-18T11:34:45.049Z,24.03
2018-02-18T11:35:48.070Z,23.89
2018-02-18T11:36:51.123Z,23.66
2018-02-18T11:37:54.238Z,23.49
2018-02-18T11:38:57.268Z,23.31
2018-02-18T11:40:00.439Z,22.99
2018-02-18T11:41:03.743Z,22.89
2018-02-18T11:42:07.009Z,22.86
2018-02-18T11:43:10.646Z,22.76
2018-02-18T11:44:13.658Z,22.68
2018-02-18T11:45:16.668Z,22.55
2018-02-18T11:46:19.686Z,22.57
2018-02-18T11:47:22.743Z,22.62
2018-02-18T11:48:25.764Z,22.71
2018-02-18T11:49:28.772Z,22.78
2018-02-18T11:50:31.828Z,22.86
2018-02-18T11:51:34.872Z,22.92
2018-02-18T11:52:37.909Z,22.99
2018-02-18T11:53:40.979Z,23.09
2018-02-18T11:54:44.001Z,23.16
2018-02-18T11:55:47.057Z,23.28
2018-02-18T11:56:50.260Z,23.38
2018-02-18T11:57:53.336Z,23.44
2018-02-18T11:58:56.335Z,23.55
2018-02-18T11:59:59.475Z,23.61
2018-02-18T12:01:02.795Z,23.69
2018-02-18T12:02:06.100Z,23.76
2018-02-18T12:03:09.160Z,23.85
2018-02-18T12:04:12.165Z,23.95
2018-02-18T12:05:15.177Z,23.99
2018-02-18T12:06:18.212Z,24.07
2018-02-18T12:07:21.233Z,24.17
2018-02-18T12:08:24.294Z,24.24
2018-02-18T12:09:27.821Z,24.28
2018-02-18T12:10:31.383Z,24.32
2018-02-18T12:11:34.530Z,24.41
2018-02-18T12:12:37.668Z,24.44
2018-02-18T12:13:40.707Z,24.48
2018-02-18T12:14:43.722Z,24.58
2018-02-18T12:15:46.798Z,24.62
2018-02-18T12:16:49.827Z,24.67
2018-02-18T12:17:52.927Z,24.72
2018-02-18T12:18:56.088Z,24.79
2018-02-18T12:19:59.155Z,24.84
2018-02-18T12:21:02.305Z,24.89
2018-02-18T12:22:05.901Z,24.93
2018-02-18T12:23:09.053Z,24.97
2018-02-18T12:24:12.155Z,25.04
2018-02-18T12:25:15.320Z,25.07
2018-02-18T12:26:18.334Z,25.10
2018-02-18T12:27:21.344Z,25.15
2018-02-18T12:28:24.336Z,25.17
2018-02-18T12:29:27.390Z,25.19
2018-02-18T12:30:30.473Z,25.21
2018-02-18T12:31:33.537Z,25.18
2018-02-18T12:32:36.546Z,25.19
2018-02-18T12:33:39.555Z,25.15
2018-02-18T12:34:42.640Z,25.13
2018-02-18T12:35:45.657Z,25.19
2018-02-18T12:36:48.682Z,25.18
2018-02-18T12:37:51.697Z,25.17
2018-02-18T12:38:54.786Z,25.14
2018-02-18T12:39:57.810Z,25.07
2018-02-18T12:41:00.816Z,25.08
2018-02-18T12:42:04.289Z,25.10
2018-02-18T12:43:07.333Z,25.01
2018-02-18T12:44:10.343Z,24.83
2018-02-18T12:45:13.394Z,24.58
2018-02-18T12:46:16.449Z,24.45
2018-02-18T12:47:19.636Z,24.42
2018-02-18T12:48:22.893Z,24.42
2018-02-18T12:49:25.910Z,24.39
2018-02-18T12:50:28.939Z,24.37
2018-02-18T12:51:31.941Z,24.34
2018-02-18T12:52:34.931Z,24.32
2018-02-18T12:53:37.988Z,24.28
2018-02-18T12:54:41.075Z,24.25
2018-02-18T12:55:44.340Z,24.22
2018-02-18T12:56:47.354Z,24.17
2018-02-18T12:57:50.446Z,24.15
2018-02-18T12:58:53.459Z,24.14
2018-02-18T12:59:56.474Z,24.13
2018-02-18T13:00:59.498Z,24.07
2018-02-18T13:02:02.540Z,24.06
2018-02-18T13:03:05.866Z,24.01
2018-02-18T13:04:08.898Z,24.01
2018-02-18T13:05:11.907Z,23.99
2018-02-18T13:06:14.982Z,23.95
2018-02-18T13:07:18.077Z,23.93
2018-02-18T13:08:21.099Z,23.86
2018-02-18T13:09:24.141Z,23.78
2018-02-18T13:10:27.170Z,23.78
2018-02-18T13:11:30.566Z,23.78
2018-02-18T13:12:33.605Z,23.79
2018-02-18T13:13:36.633Z,23.73
2018-02-18T13:14:39.644Z,23.73
2018-02-18T13:15:42.674Z,23.69
2018-02-18T13:16:45.766Z,23.69
2018-02-18T13:17:49.667Z,23.69
2018-02-18T13:18:52.736Z,23.70
2018-02-18T13:19:55.845Z,23.65
2018-02-18T13:20:59.013Z,23.65
2018-02-18T13:22:02.379Z,23.69
2018-02-18T13:23:05.747Z,23.70
2018-02-18T13:24:08.812Z,23.68
2018-02-18T13:25:11.956Z,23.76
2018-02-18T13:26:16.842Z,23.80
2018-02-18T13:27:20.648Z,23.82
2018-02-18T13:28:24.348Z,23.87
2018-02-18T13:29:27.412Z,23.93
2018-02-18T13:30:30.425Z,23.97
2018-02-18T13:31:33.437Z,24.01
2018-02-18T13:32:36.746Z,24.08
2018-02-18T13:33:41.587Z,24.08
2018-02-18T13:34:45.401Z,24.13
2018-02-18T13:35:48.427Z,24.15
2018-02-18T13:36:51.882Z,24.18
2018-02-18T13:37:55.531Z,24.17
2018-02-18T13:38:59.231Z,24.21
2018-02-18T13:40:02.551Z,24.24
2018-02-18T13:41:06.552Z,24.25
2018-02-18T13:42:09.554Z,24.25
2018-02-18T13:43:13.076Z,24.25
2018-02-18T13:44:16.711Z,24.27
2018-02-18T13:45:21.372Z,24.30
2018-02-18T13:46:24.581Z,24.28
2018-02-18T13:47:27.620Z,24.31
2018-02-18T13:48:30.644Z,24.31
2018-02-18T13:49:33.720Z,24.34
2018-02-18T13:50:37.287Z,24.31
2018-02-18T13:51:40.303Z,24.31
2018-02-18T13:52:45.939Z,24.35
2018-02-18T13:53:50.271Z,24.32
2018-02-18T13:54:54.130Z,24.34
2018-02-18T13:55:58.610Z,24.35
2018-02-18T13:57:02.037Z,24.34
2018-02-18T13:58:07.911Z,24.38
2018-02-18T13:59:11.019Z,24.37
2018-02-18T14:00:14.982Z,24.38
2018-02-18T14:01:17.995Z,24.38
2018-02-18T14:02:21.009Z,24.32
2018-02-18T14:03:25.527Z,24.31
2018-02-18T14:04:28.806Z,24.25
2018-02-18T14:05:31.924Z,24.24
2018-02-18T14:06:35.872Z,24.20
2018-02-18T14:07:39.018Z,24.15
2018-02-18T14:08:42.664Z,24.11
2018-02-18T14:09:46.828Z,24.11
2018-02-18T14:10:50.694Z,24.08
2018-02-18T14:11:54.014Z,24.06
2018-02-18T14:12:57.034Z,24.04
2018-02-18T14:14:00.740Z,23.99
2018-02-18T14:15:05.110Z,23.95
2018-02-18T14:16:09.660Z,23.92
2018-02-18T14:17:13.865Z,23.90
2018-02-18T14:18:17.444Z,23.86
2018-02-18T14:19:20.446Z,23.86
2018-02-18T14:20:23.486Z,23.86
2018-02-18T14:21:26.953Z,23.87
2018-02-18T14:22:30.872Z,23.89
2018-02-18T14:23:34.036Z,23.86
2018-02-18T14:24:37.122Z,23.86
2018-02-18T14:25:40.171Z,23.86
2018-02-18T14:26:44.054Z,23.83
2018-02-18T14:27:49.393Z,23.85
2018-02-18T14:28:57.614Z,23.82
2018-02-18T14:30:00.857Z,23.80
2018-02-18T14:31:06.192Z,23.80
2018-02-18T14:32:09.273Z,23.82
2018-02-18T14:33:12.296Z,23.78
2018-02-18T14:34:15.910Z,23.79
2018-02-18T14:35:18.910Z,23.80
2018-02-18T14:36:22.441Z,23.85
2018-02-18T14:37:25.498Z,23.85
2018-02-18T14:38:28.591Z,23.90
2018-02-18T14:39:31.633Z,23.92
2018-02-18T14:40:36.196Z,23.92
2018-02-18T14:41:39.331Z,23.93
2018-02-18T14:42:42.430Z,23.99
2018-02-18T14:43:45.463Z,24.03
2018-02-18T14:44:48.584Z,24.07
2018-02-18T14:45:52.356Z,24.10
2018-02-18T14:46:57.166Z,24.13
2018-02-18T14:48:00.188Z,24.14
2018-02-18T14:49:04.598Z,24.17
2018-02-18T14:50:08.057Z,24.18
2018-02-18T14:51:11.067Z,24.13
2018-02-18T14:52:16.471Z,24.10
2018-02-18T14:53:19.514Z,24.10
2018-02-18T14:54:22.536Z,24.10
2018-02-18T14:55:25.667Z,24.10
2018-02-18T14:56:28.772Z,24.07
2018-02-18T14:57:32.027Z,24.08
2018-02-18T14:58:35.639Z,24.06
2018-02-18T14:59:38.800Z,24.06
2018-02-18T15:00:41.830Z,23.99
2018-02-18T15:01:45.309Z,23.99
2018-02-18T15:02:50.461Z,23.97
2018-02-18T15:03:54.482Z,23.96
2018-02-18T15:04:57.629Z,23.96
2018-02-18T15:06:00.654Z,23.96
2018-02-18T15:07:04.442Z,23.97
2018-02-18T15:08:07.669Z,23.95
2018-02-18T15:09:10.744Z,23.97
2018-02-18T15:10:15.274Z,23.97
2018-02-18T15:11:20.554Z,23.99
2018-02-18T15:12:24.388Z,23.99
2018-02-18T15:13:28.786Z,24.00
2018-02-18T15:14:33.944Z,24.03
2018-02-18T15:15:37.644Z,24.06
2018-02-18T15:16:40.685Z,24.06
2018-02-18T15:17:44.193Z,24.06
2018-02-18T15:18:47.856Z,24.03
2018-02-18T15:19:51.367Z,24.03
2018-02-18T15:20:55.794Z,24.03
2018-02-18T15:21:58.817Z,23.99
2018-02-18T15:23:02.069Z,23.93
2018-02-18T15:24:06.087Z,23.92
2018-02-18T15:25:09.090Z,23.89
2018-02-18T15:26:12.415Z,23.87
2018-02-18T15:27:16.639Z,23.90
2018-02-18T15:28:19.692Z,23.93
2018-02-18T15:29:22.717Z,23.93
2018-02-18T15:30:25.778Z,23.92
2018-02-18T15:31:28.848Z,23.93
2018-02-18T15:32:32.215Z,23.90
2018-02-18T15:33:35.739Z,23.87
2018-02-18T15:34:38.784Z,23.86
2018-02-18T15:35:41.804Z,23.83
2018-02-18T15:36:45.144Z,23.80
2018-02-18T15:37:48.174Z,23.78
2018-02-18T15:38:51.258Z,23.76
2018-02-18T15:39:55.275Z,23.73
2018-02-18T15:40:58.311Z,23.70
2018-02-18T15:42:01.519Z,23.72
2018-02-18T15:43:05.063Z,23.69
2018-02-18T15:44:08.125Z,23.68
2018-02-18T15:45:11.225Z,23.66
2018-02-18T15:46:14.355Z,23.63
2018-02-18T15:47:17.398Z,23.59
2018-02-18T15:48:20.432Z,23.58
2018-02-18T15:49:23.602Z,23.56
2018-02-18T15:50:27.108Z,23.55
2018-02-18T15:51:30.163Z,23.53
2018-02-18T15:52:33.253Z,23.52
2018-02-18T15:53:36.649Z,23.51
2018-02-18T15:54:39.677Z,23.46
2018-02-18T15:55:42.762Z,23.44
2018-02-18T15:56:46.556Z,23.44
2018-02-18T15:57:51.552Z,23.40
2018-02-18T15:58:54.949Z,23.37
2018-02-18T15:59:58.016Z,23.37
2018-02-18T16:01:01.079Z,23.37
2018-02-18T16:02:05.610Z,23.37
2018-02-18T16:03:08.642Z,23.34
2018-02-18T16:04:11.661Z,23.34
2018-02-18T16:05:14.902Z,23.31
2018-02-18T16:06:18.068Z,23.26
2018-02-18T16:07:21.081Z,23.24
2018-02-18T16:08:24.192Z,23.24
2018-02-18T16:09:27.345Z,23.21
2018-02-18T16:10:30.925Z,23.21
2018-02-18T16:11:35.079Z,23.17
2018-02-18T16:12:38.090Z,23.16
2018-02-18T16:13:41.172Z,23.17
2018-02-18T16:14:44.427Z,23.13
2018-02-18T16:15:47.664Z,23.10
2018-02-18T16:16:50.792Z,23.07
2018-02-18T16:17:53.917Z,23.07
2018-02-18T16:18:56.921Z,23.10
2018-02-18T16:19:59.960Z,23.09
2018-02-18T16:21:04.202Z,23.09
2018-02-18T16:22:07.729Z,23.07
2018-02-18T16:23:10.778Z,23.07
2018-02-18T16:24:13.788Z,23.06
2018-02-18T16:25:17.227Z,23.03
2018-02-18T16:26:20.262Z,23.03
2018-02-18T16:27:23.493Z,23.00
2018-02-18T16:28:26.987Z,23.00
2018-02-18T16:29:29.996Z,22.99
2018-02-18T16:30:33.012Z,22.97
2018-02-18T16:31:36.036Z,22.99
2018-02-18T16:32:39.132Z,22.93
2018-02-18T16:33:42.219Z,22.93
2018-02-18T16:34:45.853Z,22.96
2018-02-18T16:35:48.893Z,22.94
2018-02-18T16:36:52.031Z,22.94
2018-02-18T16:37:55.819Z,22.94
2018-02-18T16:38:58.833Z,22.94
2018-02-18T16:40:02.083Z,22.93
2018-02-18T16:41:05.448Z,22.94
2018-02-18T16:42:09.358Z,22.90
2018-02-18T16:43:14.154Z,22.90
2018-02-18T16:44:17.459Z,22.89
2018-02-18T16:45:20.514Z,22.92
2018-02-18T16:46:23.949Z,22.92
2018-02-18T16:47:27.975Z,22.93
2018-02-18T16:48:31.051Z,22.90
2018-02-18T16:49:35.111Z,22.89
2018-02-18T16:50:38.143Z,22.90
2018-02-18T16:51:41.180Z,22.87
2018-02-18T16:52:45.630Z,22.89
2018-02-18T16:53:49.323Z,22.89
2018-02-18T16:54:52.992Z,22.86
2018-02-18T16:55:56.839Z,22.87
2018-02-18T16:56:59.864Z,22.89
2018-02-18T16:58:03.582Z,22.86
2018-02-18T16:59:08.093Z,22.86
2018-02-18T23:33:29.689Z,21.33
2018-02-18T23:35:55.478Z,21.44
2018-02-18T23:48:28.573Z,21.83
2018-02-18T23:50:48.746Z,21.86
